Stations météo

réclame
Mon MeteoGroup
Friedrichshafen, Allemagne (10935): Température de l'air & dewpoint: 18.10.2018 07:00:00 - 24.10.2018 07:00:00 (CEST)Friedrichshafen, Allemagne (10935): Vitesse du vent: 18.10.2018 07:00:00 - 24.10.2018 07:00:00 (CEST)Friedrichshafen, Allemagne (10935): Direction du vent: 18.10.2018 07:00:00 - 24.10.2018 07:00:00 (CEST)Friedrichshafen, Allemagne (10935): visibility: 18.10.2018 07:00:00 - 24.10.2018 07:00:00 (CEST)
Date & Time tt [°C] td [°C] ff [km/h] ff [knt] dd vv [km]
24.10.2018 07:00:00 11,0 4,0 15 8 WSW 10
24.10.2018 06:00:00 11,0 3,0 24 13 WSW 10
24.10.2018 05:00:00 11,0 3,0 13 7 WSW 10
24.10.2018 04:00:00 12,0 3,0 24 13 WSW 10
24.10.2018 03:00:00 12,0 3,0 24 13 WSW 10
24.10.2018 02:00:00 13,0 4,0 22 12 WSW 10
24.10.2018 01:00:00 13,0 4,0 21 11 WSW 10
24.10.2018 00:00:00 13,0 6,0 15 8 WSW 10
23.10.2018 23:00:00 13,0 6,0 15 8 SW 10
23.10.2018 22:00:00 13,0 5,0 16 9 SW 10
23.10.2018 21:00:00 12,0 7,0 9 5 SSW 10
23.10.2018 20:00:00 12,0 8,0 11 6 SSW 10
23.10.2018 19:00:00 11,0 8,0 8 4 S 10
23.10.2018 18:00:00 11,0 7,0 8 4 SSE 10
23.10.2018 17:00:00 11,0 7,0 11 6 S 10
23.10.2018 16:00:00 11,0 7,0 9 5 SSW 10
23.10.2018 15:00:00 12,0 6,0 11 6 SSW 10
23.10.2018 14:00:00 10,0 7,0 9 5 SSW 10
23.10.2018 13:00:00 9,0 6,0 9 5 SSW 8
23.10.2018 12:00:00 9,0 6,0 4 2 - 10
23.10.2018 11:00:00 7,0 6,0 8 4 ENE 4,1
23.10.2018 10:00:00 5,0 5,0 4 2 - 2,3
23.10.2018 09:00:00 4,0 4,0 4 2 - 0,2
23.10.2018 08:00:00 4,0 4,0 4 2 - 0,6
23.10.2018 07:00:00 4,0 3,0 11 6 NE 0,5
23.10.2018 06:00:00 3,0 2,0 11 6 NE 10
23.10.2018 05:00:00 3,0 2,0 4 2 NNW 10
23.10.2018 04:00:00 4,0 3,0 4 2 ENE 10
23.10.2018 03:00:00 5,0 3,0 8 4 NE 10
23.10.2018 02:00:00 6,0 3,0 5 3 NE 10
23.10.2018 01:00:00 6,0 4,0 5 3 NE 10
23.10.2018 00:00:00 7,0 4,0 2 1 N 10
22.10.2018 23:00:00 9,0 4,0 5 3 NE 10
22.10.2018 22:00:00 10,0 4,0 5 3 ENE 10
22.10.2018 21:00:00 10,0 3,0 4 2 - 10
22.10.2018 20:00:00 - - - - - -
22.10.2018 19:00:00 11,0 3,0 8 4 NNE 10
22.10.2018 18:00:00 13,0 3,0 11 6 NNE 10
22.10.2018 17:00:00 14,0 4,0 15 8 NNE 10
22.10.2018 16:00:00 13,0 4,0 9 5 - 10
22.10.2018 15:00:00 12,0 5,0 11 6 SW 10
22.10.2018 14:00:00 12,0 6,0 9 5 SSW 10
22.10.2018 13:00:00 11,0 3,0 4 2 - 10
22.10.2018 12:00:00 8,0 3,0 9 5 NNE 10
22.10.2018 11:00:00 7,0 2,0 11 6 NNE 10
22.10.2018 10:00:00 5,0 1,0 11 6 NNE 10
22.10.2018 09:00:00 2,0 0,0 9 5 NE 10
22.10.2018 08:00:00 2,0 0,0 9 5 NE 10
22.10.2018 07:00:00 2,0 1,0 11 6 NE 10
22.10.2018 06:00:00 2,0 0,0 9 5 NE 10
22.10.2018 05:00:00 3,0 1,0 8 4 NNE 10
22.10.2018 04:00:00 3,0 1,0 9 5 NE 10
22.10.2018 03:00:00 3,0 1,0 5 3 NE 10
22.10.2018 02:00:00 4,0 1,0 5 3 NE 10
22.10.2018 01:00:00 5,0 1,0 9 5 NE 10
22.10.2018 00:00:00 6,0 1,0 8 4 NE 10
21.10.2018 23:00:00 7,0 2,0 9 5 NNE 10
21.10.2018 22:00:00 8,0 2,0 9 5 NNE 10
21.10.2018 21:00:00 9,0 3,0 9 5 N 10
21.10.2018 20:00:00 10,0 3,0 13 7 N 10
21.10.2018 19:00:00 12,0 4,0 11 6 N 10
21.10.2018 18:00:00 13,0 4,0 16 9 NNE 10
21.10.2018 17:00:00 15,0 4,0 21 11 NNE 10
21.10.2018 16:00:00 16,0 6,0 16 9 NE 10
21.10.2018 15:00:00 16,0 6,0 16 9 NNE 10
21.10.2018 14:00:00 15,0 6,0 16 9 NNE 10
21.10.2018 13:00:00 14,0 8,0 11 6 NNE 10
21.10.2018 12:00:00 12,0 8,0 8 4 NNE 10
21.10.2018 11:00:00 9,0 7,0 9 5 NNE 7
21.10.2018 10:00:00 8,0 6,0 9 5 NNE 6
21.10.2018 09:00:00 6,0 5,0 8 4 NE 2,8
21.10.2018 08:00:00 6,0 5,0 9 5 NE 4,1
21.10.2018 07:00:00 6,0 5,0 8 4 NNE 3,9
21.10.2018 06:00:00 5,0 4,0 9 5 NE 3,0
21.10.2018 05:00:00 5,0 4,0 9 5 ENE 3,1
21.10.2018 04:00:00 6,0 6,0 9 5 NNE 3,4
21.10.2018 03:00:00 5,0 5,0 5 3 NE 0,9
21.10.2018 02:00:00 6,0 5,0 8 4 ENE 3,6
21.10.2018 01:00:00 7,0 6,0 5 3 NE 3,2
21.10.2018 00:00:00 7,0 6,0 4 2 - 3,5
20.10.2018 23:00:00 8,0 7,0 5 3 ENE 4,5
20.10.2018 22:00:00 9,0 8,0 8 4 - 4,0
20.10.2018 21:00:00 8,0 7,0 4 2 E 2,6
20.10.2018 20:00:00 10,0 9,0 4 2 NE 2,0
20.10.2018 19:00:00 11,0 10,0 5 3 NE 3,6
20.10.2018 18:00:00 14,0 11,0 4 2 - 6
20.10.2018 17:00:00 15,0 11,0 8 4 SW 4,5
20.10.2018 16:00:00 15,0 11,0 13 7 SW 4,0
20.10.2018 15:00:00 16,0 13,0 4 2 - 4,5
20.10.2018 14:00:00 12,0 11,0 8 4 E 3,2
20.10.2018 13:00:00 10,0 10,0 2 1 - 0,8
20.10.2018 12:00:00 10,0 9,0 8 4 NE 0,4
20.10.2018 11:00:00 8,0 8,0 8 4 NNE 0,6
20.10.2018 10:00:00 7,0 7,0 5 3 - 0,4
20.10.2018 09:00:00 7,0 7,0 8 4 NE 0,3
20.10.2018 08:00:00 7,0 6,0 8 4 NE 0,5
20.10.2018 07:00:00 7,0 7,0 8 4 NE 0,3
20.10.2018 06:00:00 7,0 7,0 9 5 NE 0,3
20.10.2018 05:00:00 7,0 6,0 9 5 NNE 0,4
20.10.2018 04:00:00 7,0 7,0 9 5 NNE 0,5
20.10.2018 03:00:00 7,0 7,0 9 5 NE 0,5
20.10.2018 02:00:00 8,0 7,0 5 3 NNE 1,8
20.10.2018 01:00:00 6,0 6,0 8 4 NE 1,8
20.10.2018 00:00:00 6,0 6,0 5 3 ENE 2,2
19.10.2018 23:00:00 10,0 9,0 8 4 NNE 2,5
19.10.2018 22:00:00 10,0 9,0 5 3 NNE 2,5
19.10.2018 21:00:00 10,0 9,0 4 2 NE 3,3
19.10.2018 20:00:00 11,0 9,0 0 0 N 5
19.10.2018 19:00:00 12,0 10,0 9 5 N 5
19.10.2018 18:00:00 14,0 10,0 16 9 N 7
19.10.2018 17:00:00 15,0 10,0 18 10 N 8
19.10.2018 16:00:00 16,0 10,0 15 8 N 8
19.10.2018 15:00:00 15,0 10,0 9 5 N 6
19.10.2018 14:00:00 14,0 10,0 9 5 N 6
19.10.2018 13:00:00 12,0 9,0 9 5 N 5
19.10.2018 12:00:00 11,0 9,0 9 5 N 4,9
19.10.2018 11:00:00 10,0 8,0 15 8 N 4,1
19.10.2018 10:00:00 9,0 8,0 13 7 NNE 3,2
19.10.2018 09:00:00 9,0 7,0 9 5 NNE 3,3
19.10.2018 08:00:00 7,0 6,0 11 6 NE 3,2
19.10.2018 07:00:00 9,0 7,0 9 5 NE 5
19.10.2018 06:00:00 9,0 8,0 5 3 - 5
19.10.2018 05:00:00 10,0 8,0 13 7 NNE 6
19.10.2018 04:00:00 10,0 8,0 9 5 NNE 7
19.10.2018 03:00:00 10,0 8,0 9 5 NE 8
19.10.2018 02:00:00 10,0 8,0 9 5 NE 10
19.10.2018 01:00:00 12,0 9,0 8 4 NE 10
19.10.2018 00:00:00 13,0 9,0 21 11 N 10
18.10.2018 23:00:00 13,0 9,0 16 9 N 10
18.10.2018 22:00:00 14,0 9,0 13 7 N 10
18.10.2018 21:00:00 15,0 9,0 5 3 NNE 10
18.10.2018 20:00:00 13,0 9,0 9 5 NE 10
18.10.2018 19:00:00 16,0 9,0 11 6 N 10
18.10.2018 18:00:00 18,0 9,0 11 6 NNE 10
18.10.2018 17:00:00 19,0 9,0 16 9 NNE 10
18.10.2018 16:00:00 20,0 8,0 15 8 NNE 10
18.10.2018 15:00:00 17,0 10,0 9 5 S 10
18.10.2018 14:00:00 17,0 10,0 15 8 S 10
18.10.2018 13:00:00 18,0 10,0 8 4 - 10
18.10.2018 12:00:00 15,0 10,0 9 5 NE 10
18.10.2018 11:00:00 13,0 9,0 9 5 NNE 9
18.10.2018 10:00:00 11,0 8,0 9 5 NE 7
18.10.2018 09:00:00 10,0 7,0 9 5 NE 6
18.10.2018 08:00:00 9,0 7,0 9 5 NE 8
18.10.2018 07:00:00 9,0 7,0 9 5 NE 7

tt = Température de l'air
td = dewpoint
ff = Vitesse du vent
dd = Direction du vent
vv = visibility

stations d'obs. à proximité